createdAt,value
2023-03-22T00:02:33.206Z,97523.50
2023-03-22T00:07:34.628Z,97534.63
2023-03-22T00:12:35.994Z,97532.72
2023-03-22T00:17:38.241Z,97525.91
2023-03-22T00:22:39.757Z,97514.47
2023-03-22T00:27:41.320Z,97515.63
2023-03-22T00:32:42.646Z,97521.13
2023-03-22T00:37:43.906Z,97521.66
2023-03-22T00:42:45.272Z,97514.66
2023-03-22T00:47:46.557Z,97518.75
2023-03-22T00:52:47.784Z,97504.31
2023-03-22T00:57:49.036Z,97513.97
2023-03-22T01:02:53.292Z,97503.44
2023-03-22T01:07:55.361Z,97491.47
2023-03-22T01:12:57.038Z,97488.38
2023-03-22T01:17:58.298Z,97484.09
2023-03-22T01:22:59.684Z,97478.56
2023-03-22T01:28:02.683Z,97470.84
2023-03-22T01:33:13.617Z,97458.00
2023-03-22T01:38:14.901Z,97454.50
2023-03-22T01:43:17.125Z,97456.72
2023-03-22T01:48:18.473Z,97455.84
2023-03-22T01:53:23.608Z,97464.72
2023-03-22T01:58:24.960Z,97472.94
2023-03-22T02:03:26.216Z,97467.34
2023-03-22T02:08:27.418Z,97464.16
2023-03-22T02:13:28.738Z,97449.47
2023-03-22T02:18:30.014Z,97448.53
2023-03-22T02:23:31.308Z,97435.13
2023-03-22T02:28:32.620Z,97441.84
2023-03-22T02:33:33.902Z,97446.22
2023-03-22T02:38:36.738Z,97445.50
2023-03-22T02:43:38.926Z,97444.94
2023-03-22T02:48:40.432Z,97436.69
2023-03-22T02:53:41.675Z,97443.03
2023-03-22T02:58:45.666Z,97437.59
2023-03-22T03:03:48.104Z,97443.78
2023-03-22T03:08:53.308Z,97447.97
2023-03-22T03:13:54.677Z,97445.00
2023-03-22T03:18:56.149Z,97442.78
2023-03-22T03:23:57.882Z,97439.13
2023-03-22T03:28:59.149Z,97450.00
2023-03-22T03:34:00.575Z,97448.81
2023-03-22T03:39:01.771Z,97442.19
2023-03-22T03:44:03.010Z,97448.13
2023-03-22T03:49:04.261Z,97440.72
2023-03-22T03:54:05.534Z,97449.72
2023-03-22T03:59:08.553Z,97453.06
2023-03-22T04:04:10.250Z,97460.25
2023-03-22T04:09:12.143Z,97457.63
2023-03-22T04:14:13.445Z,97460.66
2023-03-22T04:19:14.746Z,97457.34
2023-03-22T04:24:16.101Z,97457.53
2023-03-22T04:29:17.353Z,97452.47
2023-03-22T04:34:18.631Z,97461.72
2023-03-22T04:39:19.979Z,97444.97
2023-03-22T04:44:22.703Z,97435.78
2023-03-22T04:49:23.964Z,97437.88
2023-03-22T04:54:25.785Z,97439.53
2023-03-22T04:59:27.072Z,97440.97
2023-03-22T05:04:28.516Z,97443.38
2023-03-22T05:09:29.796Z,97442.91
2023-03-22T05:14:31.254Z,97437.78
2023-03-22T05:19:33.142Z,97434.72
2023-03-22T05:24:34.436Z,97445.66
2023-03-22T05:29:37.104Z,97441.34
2023-03-22T05:34:38.920Z,97459.09
2023-03-22T05:39:40.335Z,97464.34
2023-03-22T05:44:41.675Z,97461.50
2023-03-22T05:49:43.000Z,97458.13
2023-03-22T05:54:44.322Z,97467.69
2023-03-22T05:59:45.686Z,97469.78
2023-03-22T06:04:46.988Z,97470.09
2023-03-22T06:09:49.551Z,97477.00
2023-03-22T06:14:50.859Z,97481.41
2023-03-22T06:19:53.277Z,97481.16
2023-03-22T06:24:54.606Z,97485.66
2023-03-22T06:29:55.898Z,97482.72
2023-03-22T06:34:57.246Z,97487.97
2023-03-22T06:39:58.609Z,97485.44
2023-03-22T06:44:59.904Z,97487.50
2023-03-22T06:50:01.171Z,97485.38
2023-03-22T06:55:02.966Z,97490.47
2023-03-22T07:00:05.461Z,97502.84
2023-03-22T07:05:06.726Z,97508.91
2023-03-22T07:10:08.031Z,97493.44
2023-03-22T07:15:09.302Z,97484.03
2023-03-22T07:20:10.923Z,97485.19
2023-03-22T07:25:12.194Z,97480.38
2023-03-22T07:30:13.480Z,97486.59
2023-03-22T07:35:17.020Z,97488.09
2023-03-22T07:40:19.683Z,97486.41
2023-03-22T07:45:21.004Z,97482.25
2023-03-22T07:50:22.297Z,97470.84
2023-03-22T07:55:25.700Z,97468.66
2023-03-22T08:00:27.107Z,97468.03
2023-03-22T08:05:28.378Z,97464.78
2023-03-22T08:10:31.663Z,97458.00
2023-03-22T08:15:34.182Z,97441.56
2023-03-22T08:20:35.442Z,97442.31
2023-03-22T08:25:37.483Z,97446.41
2023-03-22T08:30:39.792Z,97442.72
2023-03-22T08:35:41.689Z,97433.38
2023-03-22T08:40:44.299Z,97424.88
2023-03-22T08:45:45.800Z,97412.69
2023-03-22T08:50:47.246Z,97409.19
2023-03-22T08:55:48.533Z,97394.19
2023-03-22T09:00:50.033Z,97372.69
2023-03-22T09:05:51.469Z,97370.81
2023-03-22T09:10:52.708Z,97353.22
2023-03-22T09:15:53.963Z,97340.78
2023-03-22T09:20:55.480Z,97333.16
2023-03-22T09:25:57.165Z,97320.25
2023-03-22T09:30:58.600Z,97304.00
2023-03-22T09:35:59.986Z,97299.75
2023-03-22T09:41:02.201Z,97294.34
2023-03-22T09:46:03.812Z,97273.97
2023-03-22T09:51:05.369Z,97256.75
2023-03-22T09:56:06.587Z,97232.53
2023-03-22T10:01:07.953Z,97227.53
2023-03-22T10:06:09.280Z,97223.06
2023-03-22T10:11:10.644Z,97211.03
2023-03-22T10:16:12.016Z,97208.88
2023-03-22T10:21:13.315Z,97203.88
2023-03-22T10:26:14.623Z,97200.91
2023-03-22T10:31:16.351Z,97192.44
2023-03-22T10:36:18.385Z,97188.72
2023-03-22T10:41:19.778Z,97179.47
2023-03-22T10:46:21.216Z,97166.09
2023-03-22T10:51:22.714Z,97170.75
2023-03-22T10:56:24.032Z,97168.81
2023-03-22T11:01:26.031Z,97151.47
2023-03-22T11:11:48.735Z,97148.41
2023-03-22T11:16:50.091Z,97135.28
2023-03-22T11:21:51.404Z,97121.09
2023-03-22T11:26:52.634Z,97114.25
2023-03-22T11:31:55.940Z,97108.88
2023-03-22T11:36:57.856Z,97099.44
2023-03-22T11:42:01.392Z,97093.78
2023-03-22T11:47:02.912Z,97086.66
2023-03-22T11:52:05.352Z,97076.13
2023-03-22T11:57:06.661Z,97071.25
2023-03-22T12:02:07.955Z,97065.66
2023-03-22T12:07:09.215Z,97029.72
2023-03-22T12:12:10.598Z,97048.09
2023-03-22T12:17:11.865Z,97036.59
2023-03-22T12:22:13.099Z,97032.16
2023-03-22T12:27:14.329Z,97029.47
2023-03-22T12:32:15.899Z,97017.81
2023-03-22T12:37:17.307Z,97019.28
2023-03-22T12:42:18.649Z,97001.13
2023-03-22T12:47:19.924Z,96991.16
2023-03-22T12:52:22.706Z,96992.66
2023-03-22T12:57:23.999Z,96980.31
2023-03-22T13:02:25.428Z,96990.31
2023-03-22T13:07:27.032Z,96982.69
2023-03-22T13:12:28.681Z,96988.22
2023-03-22T13:17:30.042Z,96980.06
2023-03-22T13:22:31.348Z,96970.66
2023-03-22T13:27:35.490Z,96965.84
2023-03-22T13:32:37.853Z,96969.31
2023-03-22T13:37:39.518Z,96955.25
2023-03-22T13:42:41.010Z,96967.16
2023-03-22T13:47:44.617Z,96952.69
2023-03-22T13:52:46.166Z,96943.53
2023-03-22T13:57:47.640Z,96934.66
2023-03-22T14:02:49.017Z,96925.75
2023-03-22T14:07:50.936Z,96922.53
2023-03-22T14:12:52.185Z,96924.28
2023-03-22T14:17:54.145Z,96921.59
